sensor_id;sensor_type;location;lat;lon;timestamp;P1;durP1;ratioP1;P2;durP2;ratioP2
12114;SDS011;6121;49.810;6.418;2022-10-22T00:01:01;1059.87;;;999.90;;
12114;SDS011;6121;49.810;6.418;2022-10-22T00:03:27;1047.40;;;990.75;;
12114;SDS011;6121;49.810;6.418;2022-10-22T00:05:52;1058.15;;;999.90;;
12114;SDS011;6121;49.810;6.418;2022-10-22T00:08:18;1050.80;;;993.33;;
12114;SDS011;6121;49.810;6.418;2022-10-22T00:10:44;1057.30;;;999.83;;
12114;SDS011;6121;49.810;6.418;2022-10-22T00:13:09;1048.18;;;991.00;;
12114;SDS011;6121;49.810;6.418;2022-10-22T00:15:35;1058.53;;;999.53;;
12114;SDS011;6121;49.810;6.418;2022-10-22T00:18:01;1051.82;;;994.30;;
12114;SDS011;6121;49.810;6.418;2022-10-22T00:20:27;1048.93;;;991.65;;
12114;SDS011;6121;49.810;6.418;2022-10-22T00:22:52;1047.67;;;990.23;;
12114;SDS011;6121;49.810;6.418;2022-10-22T00:25:18;1044.20;;;987.43;;
12114;SDS011;6121;49.810;6.418;2022-10-22T00:27:43;1044.65;;;987.80;;
12114;SDS011;6121;49.810;6.418;2022-10-22T00:30:09;1045.30;;;988.27;;
12114;SDS011;6121;49.810;6.418;2022-10-22T00:32:35;1052.88;;;995.65;;
12114;SDS011;6121;49.810;6.418;2022-10-22T00:35:01;972.78;;;923.78;;
12114;SDS011;6121;49.810;6.418;2022-10-22T00:37:27;993.15;;;942.47;;
12114;SDS011;6121;49.810;6.418;2022-10-22T00:39:54;1001.28;;;950.13;;
12114;SDS011;6121;49.810;6.418;2022-10-22T00:42:21;989.80;;;939.70;;
12114;SDS011;6121;49.810;6.418;2022-10-22T00:47:30;1002.20;;;950.87;;
12114;SDS011;6121;49.810;6.418;2022-10-22T00:50:00;1006.73;;;955.33;;
12114;SDS011;6121;49.810;6.418;2022-10-22T00:52:28;1014.55;;;962.35;;
12114;SDS011;6121;49.810;6.418;2022-10-22T00:54:54;1011.03;;;959.05;;
12114;SDS011;6121;49.810;6.418;2022-10-22T00:57:21;1006.25;;;954.78;;
12114;SDS011;6121;49.810;6.418;2022-10-22T00:59:47;1001.97;;;950.63;;
12114;SDS011;6121;49.810;6.418;2022-10-22T01:02:13;982.05;;;931.92;;
12114;SDS011;6121;49.810;6.418;2022-10-22T01:04:39;988.85;;;938.60;;
12114;SDS011;6121;49.810;6.418;2022-10-22T01:07:05;1001.93;;;950.53;;
12114;SDS011;6121;49.810;6.418;2022-10-22T01:09:33;1012.30;;;960.17;;
12114;SDS011;6121;49.810;6.418;2022-10-22T01:19:58;1022.60;;;969.08;;
12114;SDS011;6121;49.810;6.418;2022-10-22T01:22:43;1024.40;;;970.78;;
12114;SDS011;6121;49.810;6.418;2022-10-22T01:31:06;1007.05;;;954.08;;
12114;SDS011;6121;49.810;6.418;2022-10-22T01:33:34;1011.15;;;959.05;;
12114;SDS011;6121;49.810;6.418;2022-10-22T01:36:00;1029.82;;;975.92;;
12114;SDS011;6121;49.810;6.418;2022-10-22T01:38:28;1022.45;;;969.50;;
12114;SDS011;6121;49.810;6.418;2022-10-22T01:40:54;1018.35;;;964.88;;
12114;SDS011;6121;49.810;6.418;2022-10-22T01:43:21;1032.05;;;977.60;;
12114;SDS011;6121;49.810;6.418;2022-10-22T01:45:47;1027.95;;;973.80;;
12114;SDS011;6121;49.810;6.418;2022-10-22T01:51:02;1020.08;;;966.78;;
12114;SDS011;6121;49.810;6.418;2022-10-22T01:53:50;1021.90;;;968.50;;
12114;SDS011;6121;49.810;6.418;2022-10-22T01:56:28;1020.95;;;967.40;;
12114;SDS011;6121;49.810;6.418;2022-10-22T02:04:29;1027.43;;;973.55;;
12114;SDS011;6121;49.810;6.418;2022-10-22T02:07:04;1027.33;;;973.43;;
12114;SDS011;6121;49.810;6.418;2022-10-22T02:09:38;1035.93;;;980.22;;
12114;SDS011;6121;49.810;6.418;2022-10-22T02:12:05;1028.63;;;974.67;;
12114;SDS011;6121;49.810;6.418;2022-10-22T02:14:32;1018.65;;;964.97;;
12114;SDS011;6121;49.810;6.418;2022-10-22T02:17:00;1019.92;;;966.95;;
12114;SDS011;6121;49.810;6.418;2022-10-22T02:19:40;1007.70;;;955.92;;
12114;SDS011;6121;49.810;6.418;2022-10-22T02:22:17;1017.00;;;964.22;;
12114;SDS011;6121;49.810;6.418;2022-10-22T02:24:44;1026.75;;;973.03;;
12114;SDS011;6121;49.810;6.418;2022-10-22T02:30:09;1020.17;;;967.08;;
12114;SDS011;6121;49.810;6.418;2022-10-22T02:32:42;1025.18;;;971.63;;
12114;SDS011;6121;49.810;6.418;2022-10-22T02:35:09;1021.53;;;968.10;;
12114;SDS011;6121;49.810;6.418;2022-10-22T02:37:41;1020.90;;;967.03;;
12114;SDS011;6121;49.810;6.418;2022-10-22T02:40:08;1033.22;;;978.90;;
12114;SDS011;6121;49.810;6.418;2022-10-22T02:42:34;1032.97;;;978.47;;
12114;SDS011;6121;49.810;6.418;2022-10-22T02:45:01;1024.30;;;970.20;;
12114;SDS011;6121;49.810;6.418;2022-10-22T02:47:27;1029.53;;;974.58;;
12114;SDS011;6121;49.810;6.418;2022-10-22T02:49:53;1015.63;;;962.45;;
12114;SDS011;6121;49.810;6.418;2022-10-22T02:52:19;1021.73;;;968.20;;
12114;SDS011;6121;49.810;6.418;2022-10-22T02:54:44;1037.40;;;982.43;;
12114;SDS011;6121;49.810;6.418;2022-10-22T02:57:10;1031.00;;;976.17;;
12114;SDS011;6121;49.810;6.418;2022-10-22T02:59:35;1027.57;;;972.70;;
12114;SDS011;6121;49.810;6.418;2022-10-22T03:02:01;1037.37;;;982.20;;
12114;SDS011;6121;49.810;6.418;2022-10-22T03:04:26;1042.10;;;986.88;;
12114;SDS011;6121;49.810;6.418;2022-10-22T03:06:52;1046.43;;;990.78;;
12114;SDS011;6121;49.810;6.418;2022-10-22T03:09:17;1044.13;;;988.10;;
12114;SDS011;6121;49.810;6.418;2022-10-22T03:11:43;1043.87;;;988.10;;
12114;SDS011;6121;49.810;6.418;2022-10-22T03:14:09;1023.00;;;969.70;;
12114;SDS011;6121;49.810;6.418;2022-10-22T03:16:34;1016.47;;;964.03;;
12114;SDS011;6121;49.810;6.418;2022-10-22T03:19:00;1027.97;;;974.47;;
12114;SDS011;6121;49.810;6.418;2022-10-22T03:22:08;1036.45;;;981.97;;
12114;SDS011;6121;49.810;6.418;2022-10-22T03:24:24;1029.72;;;975.85;;
12114;SDS011;6121;49.810;6.418;2022-10-22T03:27:00;1029.53;;;976.13;;
12114;SDS011;6121;49.810;6.418;2022-10-22T03:29:26;1028.83;;;974.93;;
12114;SDS011;6121;49.810;6.418;2022-10-22T03:31:52;1023.63;;;970.28;;
12114;SDS011;6121;49.810;6.418;2022-10-22T03:34:18;1025.03;;;972.03;;
12114;SDS011;6121;49.810;6.418;2022-10-22T03:36:44;1021.20;;;968.22;;
12114;SDS011;6121;49.810;6.418;2022-10-22T03:39:11;1041.70;;;987.07;;
12114;SDS011;6121;49.810;6.418;2022-10-22T03:41:38;1031.88;;;978.17;;
12114;SDS011;6121;49.810;6.418;2022-10-22T03:44:05;1019.17;;;965.92;;
12114;SDS011;6121;49.810;6.418;2022-10-22T03:46:31;1040.63;;;985.90;;
12114;SDS011;6121;49.810;6.418;2022-10-22T03:48:57;1036.15;;;982.03;;
12114;SDS011;6121;49.810;6.418;2022-10-22T03:51:25;1028.28;;;974.78;;
12114;SDS011;6121;49.810;6.418;2022-10-22T03:53:51;1031.32;;;978.05;;
12114;SDS011;6121;49.810;6.418;2022-10-22T03:56:17;1032.30;;;978.80;;
12114;SDS011;6121;49.810;6.418;2022-10-22T03:58:43;1040.60;;;987.10;;
12114;SDS011;6121;49.810;6.418;2022-10-22T04:01:09;1055.23;;;999.87;;
12114;SDS011;6121;49.810;6.418;2022-10-22T04:03:37;1052.70;;;997.53;;
12114;SDS011;6121;49.810;6.418;2022-10-22T04:06:10;1059.30;;;999.90;;
12114;SDS011;6121;49.810;6.418;2022-10-22T04:08:40;1042.30;;;988.47;;
12114;SDS011;6121;49.810;6.418;2022-10-22T04:11:07;1057.25;;;999.90;;
12114;SDS011;6121;49.810;6.418;2022-10-22T04:13:34;1052.07;;;997.53;;
12114;SDS011;6121;49.810;6.418;2022-10-22T04:16:09;1061.85;;;999.90;;
12114;SDS011;6121;49.810;6.418;2022-10-22T04:18:37;1056.28;;;999.88;;
12114;SDS011;6121;49.810;6.418;2022-10-22T04:21:04;1049.63;;;994.80;;
12114;SDS011;6121;49.810;6.418;2022-10-22T04:23:31;1069.37;;;999.90;;
12114;SDS011;6121;49.810;6.418;2022-10-22T04:25:57;1055.67;;;999.90;;
12114;SDS011;6121;49.810;6.418;2022-10-22T04:28:24;1052.18;;;997.60;;
12114;SDS011;6121;49.810;6.418;2022-10-22T04:30:49;1062.73;;;999.90;;
12114;SDS011;6121;49.810;6.418;2022-10-22T04:33:15;1046.05;;;992.05;;
12114;SDS011;6121;49.810;6.418;2022-10-22T04:35:40;1066.85;;;999.90;;
12114;SDS011;6121;49.810;6.418;2022-10-22T04:38:06;1069.97;;;999.90;;
12114;SDS011;6121;49.810;6.418;2022-10-22T04:40:31;1069.70;;;999.90;;
12114;SDS011;6121;49.810;6.418;2022-10-22T04:42:57;1067.50;;;999.90;;
12114;SDS011;6121;49.810;6.418;2022-10-22T04:45:23;1069.33;;;999.90;;
12114;SDS011;6121;49.810;6.418;2022-10-22T04:47:48;1067.23;;;999.90;;
12114;SDS011;6121;49.810;6.418;2022-10-22T04:50:14;1072.45;;;999.90;;
12114;SDS011;6121;49.810;6.418;2022-10-22T04:52:39;1072.65;;;999.90;;
12114;SDS011;6121;49.810;6.418;2022-10-22T04:55:05;1068.53;;;999.90;;
12114;SDS011;6121;49.810;6.418;2022-10-22T04:57:31;1066.67;;;999.90;;
12114;SDS011;6121;49.810;6.418;2022-10-22T04:59:57;1080.10;;;999.90;;
12114;SDS011;6121;49.810;6.418;2022-10-22T05:02:22;1085.30;;;999.90;;
12114;SDS011;6121;49.810;6.418;2022-10-22T05:04:48;1074.80;;;999.90;;
12114;SDS011;6121;49.810;6.418;2022-10-22T05:07:13;1074.50;;;999.90;;
12114;SDS011;6121;49.810;6.418;2022-10-22T05:09:39;1059.90;;;999.90;;
12114;SDS011;6121;49.810;6.418;2022-10-22T05:12:05;1064.47;;;999.90;;
12114;SDS011;6121;49.810;6.418;2022-10-22T05:14:31;1078.70;;;999.90;;
12114;SDS011;6121;49.810;6.418;2022-10-22T05:16:57;1058.15;;;999.90;;
12114;SDS011;6121;49.810;6.418;2022-10-22T05:19:24;1065.53;;;999.90;;
12114;SDS011;6121;49.810;6.418;2022-10-22T05:21:55;1084.27;;;999.90;;
12114;SDS011;6121;49.810;6.418;2022-10-22T05:24:23;1083.67;;;999.90;;
12114;SDS011;6121;49.810;6.418;2022-10-22T05:26:51;1079.15;;;999.90;;
12114;SDS011;6121;49.810;6.418;2022-10-22T05:29:18;1076.70;;;999.90;;
12114;SDS011;6121;49.810;6.418;2022-10-22T05:31:43;1076.47;;;999.90;;
12114;SDS011;6121;49.810;6.418;2022-10-22T05:34:09;1061.60;;;999.90;;
12114;SDS011;6121;49.810;6.418;2022-10-22T05:36:35;1070.43;;;999.90;;
12114;SDS011;6121;49.810;6.418;2022-10-22T05:39:01;1069.23;;;999.90;;
12114;SDS011;6121;49.810;6.418;2022-10-22T05:41:27;1065.97;;;999.90;;
12114;SDS011;6121;49.810;6.418;2022-10-22T05:43:54;1070.47;;;999.90;;
12114;SDS011;6121;49.810;6.418;2022-10-22T05:46:21;1065.65;;;999.90;;
12114;SDS011;6121;49.810;6.418;2022-10-22T05:48:52;1065.93;;;999.90;;
12114;SDS011;6121;49.810;6.418;2022-10-22T05:51:23;1070.53;;;999.90;;
12114;SDS011;6121;49.810;6.418;2022-10-22T05:53:51;1074.03;;;999.90;;
12114;SDS011;6121;49.810;6.418;2022-10-22T05:56:18;1061.95;;;999.90;;
12114;SDS011;6121;49.810;6.418;2022-10-22T05:58:44;1065.60;;;999.90;;
12114;SDS011;6121;49.810;6.418;2022-10-22T06:03:40;1055.35;;;999.55;;
12114;SDS011;6121;49.810;6.418;2022-10-22T06:06:13;1071.28;;;999.90;;
12114;SDS011;6121;49.810;6.418;2022-10-22T06:09:05;1049.00;;;994.28;;
12114;SDS011;6121;49.810;6.418;2022-10-22T06:11:38;1061.32;;;999.90;;
12114;SDS011;6121;49.810;6.418;2022-10-22T06:14:04;1061.60;;;999.90;;
12114;SDS011;6121;49.810;6.418;2022-10-22T06:16:30;1065.47;;;999.90;;
12114;SDS011;6121;49.810;6.418;2022-10-22T06:18:59;1060.32;;;999.90;;
12114;SDS011;6121;49.810;6.418;2022-10-22T06:21:26;1055.40;;;999.55;;
12114;SDS011;6121;49.810;6.418;2022-10-22T06:23:51;1062.20;;;999.90;;
12114;SDS011;6121;49.810;6.418;2022-10-22T06:26:20;1064.68;;;999.90;;
12114;SDS011;6121;49.810;6.418;2022-10-22T06:28:45;1063.07;;;999.90;;
12114;SDS011;6121;49.810;6.418;2022-10-22T06:31:11;1073.95;;;999.90;;
12114;SDS011;6121;49.810;6.418;2022-10-22T06:33:36;1055.43;;;999.73;;
12114;SDS011;6121;49.810;6.418;2022-10-22T06:36:10;1074.88;;;999.90;;
12114;SDS011;6121;49.810;6.418;2022-10-22T06:38:38;1077.80;;;999.90;;
12114;SDS011;6121;49.810;6.418;2022-10-22T06:41:04;1067.57;;;999.90;;
12114;SDS011;6121;49.810;6.418;2022-10-22T06:43:32;1053.55;;;997.58;;
12114;SDS011;6121;49.810;6.418;2022-10-22T06:46:19;1061.13;;;999.90;;
12114;SDS011;6121;49.810;6.418;2022-10-22T06:48:51;1056.25;;;999.90;;
12114;SDS011;6121;49.810;6.418;2022-10-22T06:51:18;1057.05;;;999.90;;
12114;SDS011;6121;49.810;6.418;2022-10-22T06:53:45;1060.50;;;999.90;;
12114;SDS011;6121;49.810;6.418;2022-10-22T06:56:12;1067.25;;;999.90;;
12114;SDS011;6121;49.810;6.418;2022-10-22T06:58:39;1053.10;;;997.78;;
12114;SDS011;6121;49.810;6.418;2022-10-22T07:01:08;1061.25;;;999.90;;
12114;SDS011;6121;49.810;6.418;2022-10-22T07:03:38;1056.35;;;999.35;;
12114;SDS011;6121;49.810;6.418;2022-10-22T07:06:06;1056.10;;;999.78;;
12114;SDS011;6121;49.810;6.418;2022-10-22T07:08:34;1049.32;;;993.47;;
12114;SDS011;6121;49.810;6.418;2022-10-22T07:13:39;1037.10;;;981.92;;
12114;SDS011;6121;49.810;6.418;2022-10-22T07:16:06;1031.68;;;976.80;;
12114;SDS011;6121;49.810;6.418;2022-10-22T07:18:32;1039.63;;;985.00;;
12114;SDS011;6121;49.810;6.418;2022-10-22T07:20:59;1047.43;;;991.55;;
12114;SDS011;6121;49.810;6.418;2022-10-22T07:23:25;1037.45;;;982.15;;
12114;SDS011;6121;49.810;6.418;2022-10-22T07:25:51;1049.65;;;993.33;;
12114;SDS011;6121;49.810;6.418;2022-10-22T07:28:17;1040.20;;;984.17;;
12114;SDS011;6121;49.810;6.418;2022-10-22T07:30:43;1051.55;;;994.10;;
12114;SDS011;6121;49.810;6.418;2022-10-22T07:33:08;1043.40;;;987.15;;
12114;SDS011;6121;49.810;6.418;2022-10-22T07:35:35;1041.53;;;984.70;;
12114;SDS011;6121;49.810;6.418;2022-10-22T07:38:01;1038.97;;;982.53;;
12114;SDS011;6121;49.810;6.418;2022-10-22T07:40:27;1039.23;;;983.27;;
12114;SDS011;6121;49.810;6.418;2022-10-22T07:42:53;1045.35;;;989.20;;
12114;SDS011;6121;49.810;6.418;2022-10-22T07:45:18;1042.33;;;985.93;;
12114;SDS011;6121;49.810;6.418;2022-10-22T07:47:45;1056.53;;;996.93;;
12114;SDS011;6121;49.810;6.418;2022-10-22T07:50:11;1037.25;;;978.50;;
12114;SDS011;6121;49.810;6.418;2022-10-22T07:52:37;1040.35;;;982.95;;
12114;SDS011;6121;49.810;6.418;2022-10-22T07:55:03;1030.07;;;973.57;;
12114;SDS011;6121;49.810;6.418;2022-10-22T07:57:29;1036.20;;;978.42;;
12114;SDS011;6121;49.810;6.418;2022-10-22T07:59:55;1028.73;;;972.23;;
12114;SDS011;6121;49.810;6.418;2022-10-22T08:02:22;1026.40;;;970.40;;
12114;SDS011;6121;49.810;6.418;2022-10-22T08:04:50;1033.90;;;977.25;;
12114;SDS011;6121;49.810;6.418;2022-10-22T08:07:16;1041.83;;;984.83;;
12114;SDS011;6121;49.810;6.418;2022-10-22T08:09:43;1035.25;;;979.53;;
12114;SDS011;6121;49.810;6.418;2022-10-22T08:12:08;1018.70;;;964.47;;
12114;SDS011;6121;49.810;6.418;2022-10-22T08:14:34;1035.38;;;979.17;;
12114;SDS011;6121;49.810;6.418;2022-10-22T08:16:59;852.30;;;811.00;;
12114;SDS011;6121;49.810;6.418;2022-10-22T08:19:25;783.37;;;746.13;;
12114;SDS011;6121;49.810;6.418;2022-10-22T08:21:52;1019.97;;;964.28;;
12114;SDS011;6121;49.810;6.418;2022-10-22T08:24:18;1032.13;;;975.07;;
12114;SDS011;6121;49.810;6.418;2022-10-22T08:26:44;1032.73;;;974.60;;
12114;SDS011;6121;49.810;6.418;2022-10-22T08:29:09;1019.75;;;962.13;;
12114;SDS011;6121;49.810;6.418;2022-10-22T08:31:35;1020.88;;;962.97;;
12114;SDS011;6121;49.810;6.418;2022-10-22T08:34:00;1018.40;;;961.67;;
12114;SDS011;6121;49.810;6.418;2022-10-22T08:36:26;1030.07;;;971.92;;
12114;SDS011;6121;49.810;6.418;2022-10-22T08:38:52;1030.78;;;973.60;;
12114;SDS011;6121;49.810;6.418;2022-10-22T08:41:18;1022.58;;;965.83;;
12114;SDS011;6121;49.810;6.418;2022-10-22T08:49:09;1014.88;;;957.80;;
12114;SDS011;6121;49.810;6.418;2022-10-22T08:51:41;1018.40;;;960.92;;
12114;SDS011;6121;49.810;6.418;2022-10-22T08:54:12;1000.72;;;943.53;;
12114;SDS011;6121;49.810;6.418;2022-10-22T09:02:07;989.57;;;931.97;;
12114;SDS011;6121;49.810;6.418;2022-10-22T09:04:48;1005.35;;;947.67;;
12114;SDS011;6121;49.810;6.418;2022-10-22T09:07:20;997.70;;;940.28;;
12114;SDS011;6121;49.810;6.418;2022-10-22T09:09:47;1015.10;;;956.75;;
12114;SDS011;6121;49.810;6.418;2022-10-22T09:12:16;993.58;;;936.78;;
12114;SDS011;6121;49.810;6.418;2022-10-22T09:14:42;996.33;;;937.80;;
12114;SDS011;6121;49.810;6.418;2022-10-22T09:17:24;1011.27;;;952.80;;
12114;SDS011;6121;49.810;6.418;2022-10-22T09:23:25;993.92;;;937.72;;
12114;SDS011;6121;49.810;6.418;2022-10-22T09:26:13;1004.25;;;946.45;;
12114;SDS011;6121;49.810;6.418;2022-10-22T09:28:40;996.33;;;942.20;;
12114;SDS011;6121;49.810;6.418;2022-10-22T09:31:09;1000.75;;;945.58;;
12114;SDS011;6121;49.810;6.418;2022-10-22T09:33:37;995.83;;;943.13;;
12114;SDS011;6121;49.810;6.418;2022-10-22T09:36:03;1000.30;;;946.97;;
12114;SDS011;6121;49.810;6.418;2022-10-22T09:38:33;998.42;;;946.20;;
12114;SDS011;6121;49.810;6.418;2022-10-22T09:41:04;998.67;;;945.63;;
12114;SDS011;6121;49.810;6.418;2022-10-22T09:43:30;1010.28;;;955.05;;
12114;SDS011;6121;49.810;6.418;2022-10-22T09:45:58;1001.63;;;945.42;;
12114;SDS011;6121;49.810;6.418;2022-10-22T09:48:30;951.88;;;898.55;;
12114;SDS011;6121;49.810;6.418;2022-10-22T09:53:35;885.03;;;835.83;;
12114;SDS011;6121;49.810;6.418;2022-10-22T09:56:07;892.83;;;842.58;;
12114;SDS011;6121;49.810;6.418;2022-10-22T09:58:44;910.13;;;860.63;;
12114;SDS011;6121;49.810;6.418;2022-10-22T10:01:32;904.47;;;853.90;;
12114;SDS011;6121;49.810;6.418;2022-10-22T10:04:03;859.28;;;811.10;;
12114;SDS011;6121;49.810;6.418;2022-10-22T10:06:32;690.65;;;646.05;;
12114;SDS011;6121;49.810;6.418;2022-10-22T10:08:59;663.15;;;619.75;;
12114;SDS011;6121;49.810;6.418;2022-10-22T10:11:40;659.20;;;616.95;;
12114;SDS011;6121;49.810;6.418;2022-10-22T10:14:20;673.97;;;632.33;;
12114;SDS011;6121;49.810;6.418;2022-10-22T10:23:12;700.87;;;659.67;;
12114;SDS011;6121;49.810;6.418;2022-10-22T10:33:50;738.67;;;691.33;;
12114;SDS011;6121;49.810;6.418;2022-10-22T10:36:38;730.88;;;678.70;;
12114;SDS011;6121;49.810;6.418;2022-10-22T10:39:16;747.43;;;696.07;;
12114;SDS011;6121;49.810;6.418;2022-10-22T10:50:04;768.17;;;714.17;;
12114;SDS011;6121;49.810;6.418;2022-10-22T10:53:53;781.55;;;727.35;;
12114;SDS011;6121;49.810;6.418;2022-10-22T10:56:00;778.70;;;725.58;;
12114;SDS011;6121;49.810;6.418;2022-10-22T11:01:26;787.60;;;734.35;;
12114;SDS011;6121;49.810;6.418;2022-10-22T11:06:52;801.80;;;746.83;;
12114;SDS011;6121;49.810;6.418;2022-10-22T11:09:56;785.83;;;732.63;;
12114;SDS011;6121;49.810;6.418;2022-10-22T11:12:23;800.53;;;746.83;;
12114;SDS011;6121;49.810;6.418;2022-10-22T11:17:22;806.72;;;752.70;;
12114;SDS011;6121;49.810;6.418;2022-10-22T11:23:08;818.97;;;764.70;;
12114;SDS011;6121;49.810;6.418;2022-10-22T11:25:41;802.40;;;748.35;;
12114;SDS011;6121;49.810;6.418;2022-10-22T11:28:22;836.75;;;781.30;;
12114;SDS011;6121;49.810;6.418;2022-10-22T11:31:35;832.20;;;776.90;;
12114;SDS011;6121;49.810;6.418;2022-10-22T11:33:52;823.88;;;769.53;;
12114;SDS011;6121;49.810;6.418;2022-10-22T11:36:23;824.38;;;768.75;;
12114;SDS011;6121;49.810;6.418;2022-10-22T11:38:51;837.83;;;782.47;;
12114;SDS011;6121;49.810;6.418;2022-10-22T11:41:18;837.60;;;782.13;;
12114;SDS011;6121;49.810;6.418;2022-10-22T11:43:55;863.75;;;807.63;;
12114;SDS011;6121;49.810;6.418;2022-10-22T11:49:26;907.90;;;850.63;;
12114;SDS011;6121;49.810;6.418;2022-10-22T11:52:20;873.80;;;817.47;;
12114;SDS011;6121;49.810;6.418;2022-10-22T11:54:56;859.90;;;803.33;;
12114;SDS011;6121;49.810;6.418;2022-10-22T11:57:34;870.77;;;813.47;;
12114;SDS011;6121;49.810;6.418;2022-10-22T12:00:05;894.92;;;837.03;;
12114;SDS011;6121;49.810;6.418;2022-10-22T12:03:37;921.47;;;863.13;;
12114;SDS011;6121;49.810;6.418;2022-10-22T12:06:01;899.22;;;841.45;;
12114;SDS011;6121;49.810;6.418;2022-10-22T12:09:04;913.10;;;855.10;;
12114;SDS011;6121;49.810;6.418;2022-10-22T12:11:35;899.47;;;842.33;;
12114;SDS011;6121;49.810;6.418;2022-10-22T12:19:44;886.70;;;829.53;;
12114;SDS011;6121;49.810;6.418;2022-10-22T12:22:31;880.00;;;822.67;;
12114;SDS011;6121;49.810;6.418;2022-10-22T12:25:01;877.47;;;820.78;;
12114;SDS011;6121;49.810;6.418;2022-10-22T12:27:40;877.70;;;820.67;;
12114;SDS011;6121;49.810;6.418;2022-10-22T12:30:22;876.05;;;819.10;;
12114;SDS011;6121;49.810;6.418;2022-10-22T12:32:59;878.33;;;820.53;;
12114;SDS011;6121;49.810;6.418;2022-10-22T12:35:29;871.23;;;814.27;;
12114;SDS011;6121;49.810;6.418;2022-10-22T12:38:18;868.75;;;811.40;;
12114;SDS011;6121;49.810;6.418;2022-10-22T12:40:47;864.15;;;807.50;;
12114;SDS011;6121;49.810;6.418;2022-10-22T12:43:16;873.08;;;816.22;;
12114;SDS011;6121;49.810;6.418;2022-10-22T12:45:43;866.78;;;809.80;;
12114;SDS011;6121;49.810;6.418;2022-10-22T12:48:16;878.38;;;820.63;;
12114;SDS011;6121;49.810;6.418;2022-10-22T12:50:51;876.87;;;820.23;;
12114;SDS011;6121;49.810;6.418;2022-10-22T12:53:32;864.00;;;808.22;;
12114;SDS011;6121;49.810;6.418;2022-10-22T12:56:02;862.38;;;806.20;;
12114;SDS011;6121;49.810;6.418;2022-10-22T12:58:37;871.70;;;815.25;;
12114;SDS011;6121;49.810;6.418;2022-10-22T13:01:05;868.22;;;810.95;;
12114;SDS011;6121;49.810;6.418;2022-10-22T13:03:35;863.33;;;806.90;;
12114;SDS011;6121;49.810;6.418;2022-10-22T13:08:43;864.55;;;807.60;;
12114;SDS011;6121;49.810;6.418;2022-10-22T13:11:20;856.55;;;800.95;;
12114;SDS011;6121;49.810;6.418;2022-10-22T13:13:46;867.50;;;811.27;;
12114;SDS011;6121;49.810;6.418;2022-10-22T13:16:22;880.03;;;822.53;;
12114;SDS011;6121;49.810;6.418;2022-10-22T13:18:50;863.50;;;806.88;;
12114;SDS011;6121;49.810;6.418;2022-10-22T13:21:34;862.45;;;806.20;;
12114;SDS011;6121;49.810;6.418;2022-10-22T13:24:18;890.22;;;833.35;;
12114;SDS011;6121;49.810;6.418;2022-10-22T13:26:47;879.92;;;822.55;;
12114;SDS011;6121;49.810;6.418;2022-10-22T13:29:15;896.95;;;839.60;;
12114;SDS011;6121;49.810;6.418;2022-10-22T13:31:45;891.30;;;833.72;;
12114;SDS011;6121;49.810;6.418;2022-10-22T13:34:13;870.28;;;813.78;;
12114;SDS011;6121;49.810;6.418;2022-10-22T13:36:48;897.05;;;837.58;;
12114;SDS011;6121;49.810;6.418;2022-10-22T13:39:15;889.83;;;832.63;;
12114;SDS011;6121;49.810;6.418;2022-10-22T13:41:44;891.38;;;834.22;;
12114;SDS011;6121;49.810;6.418;2022-10-22T13:44:10;902.95;;;845.00;;
12114;SDS011;6121;49.810;6.418;2022-10-22T13:46:36;889.67;;;831.77;;
12114;SDS011;6121;49.810;6.418;2022-10-22T13:49:06;896.67;;;839.65;;
12114;SDS011;6121;49.810;6.418;2022-10-22T13:51:37;892.97;;;835.80;;
12114;SDS011;6121;49.810;6.418;2022-10-22T13:54:03;901.23;;;844.60;;
12114;SDS011;6121;49.810;6.418;2022-10-22T13:56:39;902.95;;;844.90;;
12114;SDS011;6121;49.810;6.418;2022-10-22T13:59:05;949.47;;;890.72;;
12114;SDS011;6121;49.810;6.418;2022-10-22T14:01:32;960.15;;;899.97;;
12114;SDS011;6121;49.810;6.418;2022-10-22T14:03:58;933.20;;;875.07;;
12114;SDS011;6121;49.810;6.418;2022-10-22T14:06:26;940.83;;;879.95;;
12114;SDS011;6121;49.810;6.418;2022-10-22T14:08:59;947.20;;;887.95;;
12114;SDS011;6121;49.810;6.418;2022-10-22T14:11:28;946.80;;;888.22;;
12114;SDS011;6121;49.810;6.418;2022-10-22T14:13:57;957.08;;;897.97;;
12114;SDS011;6121;49.810;6.418;2022-10-22T14:16:24;956.00;;;895.77;;
12114;SDS011;6121;49.810;6.418;2022-10-22T14:18:51;951.78;;;892.55;;
12114;SDS011;6121;49.810;6.418;2022-10-22T14:21:18;932.22;;;873.88;;
12114;SDS011;6121;49.810;6.418;2022-10-22T14:23:44;939.95;;;879.78;;
12114;SDS011;6121;49.810;6.418;2022-10-22T14:26:14;941.65;;;882.13;;
12114;SDS011;6121;49.810;6.418;2022-10-22T14:28:45;951.05;;;891.58;;
12114;SDS011;6121;49.810;6.418;2022-10-22T14:31:11;954.87;;;895.37;;
12114;SDS011;6121;49.810;6.418;2022-10-22T14:33:36;943.33;;;882.70;;
12114;SDS011;6121;49.810;6.418;2022-10-22T14:36:03;948.38;;;887.42;;
12114;SDS011;6121;49.810;6.418;2022-10-22T14:38:29;950.80;;;890.80;;
12114;SDS011;6121;49.810;6.418;2022-10-22T14:40:55;950.75;;;890.80;;
12114;SDS011;6121;49.810;6.418;2022-10-22T14:43:22;946.47;;;886.13;;
12114;SDS011;6121;49.810;6.418;2022-10-22T14:45:50;949.65;;;889.17;;
12114;SDS011;6121;49.810;6.418;2022-10-22T14:48:16;948.50;;;888.22;;
12114;SDS011;6121;49.810;6.418;2022-10-22T14:50:42;951.17;;;890.33;;
12114;SDS011;6121;49.810;6.418;2022-10-22T14:53:09;954.17;;;893.15;;
12114;SDS011;6121;49.810;6.418;2022-10-22T14:55:34;952.15;;;892.03;;
12114;SDS011;6121;49.810;6.418;2022-10-22T14:58:00;966.30;;;904.30;;
12114;SDS011;6121;49.810;6.418;2022-10-22T15:00:26;947.28;;;886.45;;
12114;SDS011;6121;49.810;6.418;2022-10-22T15:02:51;944.10;;;883.87;;
12114;SDS011;6121;49.810;6.418;2022-10-22T15:05:19;937.53;;;878.17;;
12114;SDS011;6121;49.810;6.418;2022-10-22T15:07:47;952.97;;;892.63;;
12114;SDS011;6121;49.810;6.418;2022-10-22T15:10:12;946.87;;;887.47;;
12114;SDS011;6121;49.810;6.418;2022-10-22T15:12:38;953.22;;;893.90;;
12114;SDS011;6121;49.810;6.418;2022-10-22T15:15:04;940.17;;;881.15;;
12114;SDS011;6121;49.810;6.418;2022-10-22T15:17:30;948.58;;;888.67;;
12114;SDS011;6121;49.810;6.418;2022-10-22T15:19:56;945.25;;;886.13;;
12114;SDS011;6121;49.810;6.418;2022-10-22T15:22:24;958.78;;;898.90;;
12114;SDS011;6121;49.810;6.418;2022-10-22T15:24:50;947.72;;;887.58;;
12114;SDS011;6121;49.810;6.418;2022-10-22T15:27:17;946.17;;;886.97;;
12114;SDS011;6121;49.810;6.418;2022-10-22T15:29:43;943.58;;;884.38;;
12114;SDS011;6121;49.810;6.418;2022-10-22T15:32:08;948.50;;;889.00;;
12114;SDS011;6121;49.810;6.418;2022-10-22T15:34:35;949.78;;;890.20;;
12114;SDS011;6121;49.810;6.418;2022-10-22T15:37:03;947.67;;;888.58;;
12114;SDS011;6121;49.810;6.418;2022-10-22T15:39:31;948.25;;;888.30;;
12114;SDS011;6121;49.810;6.418;2022-10-22T15:41:57;949.00;;;889.70;;
12114;SDS011;6121;49.810;6.418;2022-10-22T15:44:28;946.92;;;887.40;;
12114;SDS011;6121;49.810;6.418;2022-10-22T15:46:54;954.58;;;894.95;;
12114;SDS011;6121;49.810;6.418;2022-10-22T15:49:24;944.75;;;885.53;;